sensor_id;sensor_type;location;lat;lon;timestamp;temperature;humidity
5796;DHT22;2924;51.458;7.046;2023-06-22T00:01:27;20.50;99.90
5796;DHT22;2924;51.458;7.046;2023-06-22T00:03:53;20.50;99.90
5796;DHT22;2924;51.458;7.046;2023-06-22T00:06:19;20.40;99.90
5796;DHT22;2924;51.458;7.046;2023-06-22T00:08:44;20.30;99.90
5796;DHT22;2924;51.458;7.046;2023-06-22T00:11:10;20.20;99.90
5796;DHT22;2924;51.458;7.046;2023-06-22T00:13:36;20.20;99.90
5796;DHT22;2924;51.458;7.046;2023-06-22T00:16:01;20.10;99.90
5796;DHT22;2924;51.458;7.046;2023-06-22T00:18:27;20.10;99.90
5796;DHT22;2924;51.458;7.046;2023-06-22T00:20:54;20.10;99.90
5796;DHT22;2924;51.458;7.046;2023-06-22T00:23:23;20.10;99.90
5796;DHT22;2924;51.458;7.046;2023-06-22T00:25:49;20.10;99.90
5796;DHT22;2924;51.458;7.046;2023-06-22T00:28:15;20.10;99.90
5796;DHT22;2924;51.458;7.046;2023-06-22T00:30:40;20.10;99.90
5796;DHT22;2924;51.458;7.046;2023-06-22T00:33:06;20.10;99.90
5796;DHT22;2924;51.458;7.046;2023-06-22T00:35:33;20.20;99.90
5796;DHT22;2924;51.458;7.046;2023-06-22T00:38:00;20.20;99.90
5796;DHT22;2924;51.458;7.046;2023-06-22T00:40:28;20.20;99.90
5796;DHT22;2924;51.458;7.046;2023-06-22T00:42:54;20.20;99.90
5796;DHT22;2924;51.458;7.046;2023-06-22T00:45:21;20.20;99.90
5796;DHT22;2924;51.458;7.046;2023-06-22T00:47:51;20.20;99.90
5796;DHT22;2924;51.458;7.046;2023-06-22T00:50:20;20.20;99.90
5796;DHT22;2924;51.458;7.046;2023-06-22T00:52:57;20.20;99.90
5796;DHT22;2924;51.458;7.046;2023-06-22T00:55:24;20.10;99.90
5796;DHT22;2924;51.458;7.046;2023-06-22T00:57:52;20.10;99.90
5796;DHT22;2924;51.458;7.046;2023-06-22T01:00:23;20.00;99.90
5796;DHT22;2924;51.458;7.046;2023-06-22T01:02:50;20.00;99.90
5796;DHT22;2924;51.458;7.046;2023-06-22T01:05:18;20.00;99.90
5796;DHT22;2924;51.458;7.046;2023-06-22T01:07:54;20.00;99.90
5796;DHT22;2924;51.458;7.046;2023-06-22T01:13:26;20.00;99.90
5796;DHT22;2924;51.458;7.046;2023-06-22T01:16:09;19.90;99.90
5796;DHT22;2924;51.458;7.046;2023-06-22T01:18:40;19.90;99.90
5796;DHT22;2924;51.458;7.046;2023-06-22T01:21:06;19.80;99.90
5796;DHT22;2924;51.458;7.046;2023-06-22T01:23:41;19.80;99.90
5796;DHT22;2924;51.458;7.046;2023-06-22T01:26:16;19.80;99.90
5796;DHT22;2924;51.458;7.046;2023-06-22T01:28:49;19.70;99.90
5796;DHT22;2924;51.458;7.046;2023-06-22T01:31:24;19.70;99.90
5796;DHT22;2924;51.458;7.046;2023-06-22T01:33:53;19.80;99.90
5796;DHT22;2924;51.458;7.046;2023-06-22T01:36:21;19.80;99.90
5796;DHT22;2924;51.458;7.046;2023-06-22T01:38:48;19.80;99.90
5796;DHT22;2924;51.458;7.046;2023-06-22T01:41:14;19.80;99.90
5796;DHT22;2924;51.458;7.046;2023-06-22T01:43:41;19.80;99.90
5796;DHT22;2924;51.458;7.046;2023-06-22T01:46:08;19.80;99.90
5796;DHT22;2924;51.458;7.046;2023-06-22T01:48:33;19.80;99.90
5796;DHT22;2924;51.458;7.046;2023-06-22T01:50:59;19.80;99.90
5796;DHT22;2924;51.458;7.046;2023-06-22T01:53:25;19.80;99.90
5796;DHT22;2924;51.458;7.046;2023-06-22T01:55:51;19.70;99.90
5796;DHT22;2924;51.458;7.046;2023-06-22T01:58:16;19.80;99.90
5796;DHT22;2924;51.458;7.046;2023-06-22T02:00:51;19.80;99.90
5796;DHT22;2924;51.458;7.046;2023-06-22T02:03:21;19.80;99.90
5796;DHT22;2924;51.458;7.046;2023-06-22T02:05:52;19.70;99.90
5796;DHT22;2924;51.458;7.046;2023-06-22T02:08:27;19.80;99.90
5796;DHT22;2924;51.458;7.046;2023-06-22T02:10:55;19.70;99.90
5796;DHT22;2924;51.458;7.046;2023-06-22T02:13:20;19.70;99.90
5796;DHT22;2924;51.458;7.046;2023-06-22T02:15:47;19.70;99.90
5796;DHT22;2924;51.458;7.046;2023-06-22T02:18:13;19.60;99.90
5796;DHT22;2924;51.458;7.046;2023-06-22T02:20:39;19.60;99.90
5796;DHT22;2924;51.458;7.046;2023-06-22T02:23:06;19.50;99.90
5796;DHT22;2924;51.458;7.046;2023-06-22T02:25:33;19.50;99.90
5796;DHT22;2924;51.458;7.046;2023-06-22T02:27:58;19.40;99.90
5796;DHT22;2924;51.458;7.046;2023-06-22T02:30:24;19.40;99.90
5796;DHT22;2924;51.458;7.046;2023-06-22T02:32:50;19.40;99.90
5796;DHT22;2924;51.458;7.046;2023-06-22T02:35:29;19.30;99.90
5796;DHT22;2924;51.458;7.046;2023-06-22T02:37:58;19.30;99.90
5796;DHT22;2924;51.458;7.046;2023-06-22T02:40:25;19.30;99.90
5796;DHT22;2924;51.458;7.046;2023-06-22T02:42:51;19.20;99.90
5796;DHT22;2924;51.458;7.046;2023-06-22T02:45:16;19.20;99.90
5796;DHT22;2924;51.458;7.046;2023-06-22T02:47:42;19.10;99.90
5796;DHT22;2924;51.458;7.046;2023-06-22T02:50:07;19.10;99.90
5796;DHT22;2924;51.458;7.046;2023-06-22T02:52:33;19.00;99.90
5796;DHT22;2924;51.458;7.046;2023-06-22T02:54:59;18.90;99.90
5796;DHT22;2924;51.458;7.046;2023-06-22T02:57:25;18.80;99.90
5796;DHT22;2924;51.458;7.046;2023-06-22T02:59:50;18.80;99.90
5796;DHT22;2924;51.458;7.046;2023-06-22T03:02:16;18.70;99.90
5796;DHT22;2924;51.458;7.046;2023-06-22T03:04:41;18.70;99.90
5796;DHT22;2924;51.458;7.046;2023-06-22T03:07:08;18.70;99.90
5796;DHT22;2924;51.458;7.046;2023-06-22T03:09:33;18.60;99.90
5796;DHT22;2924;51.458;7.046;2023-06-22T03:11:59;18.60;99.90
5796;DHT22;2924;51.458;7.046;2023-06-22T03:14:25;18.50;99.90
5796;DHT22;2924;51.458;7.046;2023-06-22T03:16:50;18.60;99.90
5796;DHT22;2924;51.458;7.046;2023-06-22T03:19:16;18.60;99.90
5796;DHT22;2924;51.458;7.046;2023-06-22T03:21:42;18.50;99.90
5796;DHT22;2924;51.458;7.046;2023-06-22T03:24:07;18.50;99.90
5796;DHT22;2924;51.458;7.046;2023-06-22T03:26:33;18.40;99.90
5796;DHT22;2924;51.458;7.046;2023-06-22T03:29:00;18.30;99.90
5796;DHT22;2924;51.458;7.046;2023-06-22T03:31:25;18.30;99.90
5796;DHT22;2924;51.458;7.046;2023-06-22T03:33:52;18.30;99.90
5796;DHT22;2924;51.458;7.046;2023-06-22T03:36:18;18.30;99.90
5796;DHT22;2924;51.458;7.046;2023-06-22T03:38:48;18.30;99.90
5796;DHT22;2924;51.458;7.046;2023-06-22T03:41:15;18.30;99.90
5796;DHT22;2924;51.458;7.046;2023-06-22T03:43:41;18.30;99.90
5796;DHT22;2924;51.458;7.046;2023-06-22T03:46:07;18.40;99.90
5796;DHT22;2924;51.458;7.046;2023-06-22T03:48:33;18.40;99.90
5796;DHT22;2924;51.458;7.046;2023-06-22T03:51:02;18.40;99.90
5796;DHT22;2924;51.458;7.046;2023-06-22T03:53:28;18.40;99.90
5796;DHT22;2924;51.458;7.046;2023-06-22T03:55:54;18.50;99.90
5796;DHT22;2924;51.458;7.046;2023-06-22T03:58:20;18.50;99.90
5796;DHT22;2924;51.458;7.046;2023-06-22T04:00:47;18.60;99.90
5796;DHT22;2924;51.458;7.046;2023-06-22T04:03:13;18.70;99.90
5796;DHT22;2924;51.458;7.046;2023-06-22T04:05:39;18.80;99.90
5796;DHT22;2924;51.458;7.046;2023-06-22T04:08:05;19.00;99.90
5796;DHT22;2924;51.458;7.046;2023-06-22T04:10:31;19.30;99.90
5796;DHT22;2924;51.458;7.046;2023-06-22T04:12:57;19.30;99.90
5796;DHT22;2924;51.458;7.046;2023-06-22T04:15:22;19.60;99.90
5796;DHT22;2924;51.458;7.046;2023-06-22T04:17:48;19.60;99.90
5796;DHT22;2924;51.458;7.046;2023-06-22T04:20:13;19.50;99.90
5796;DHT22;2924;51.458;7.046;2023-06-22T04:22:39;19.50;99.90
5796;DHT22;2924;51.458;7.046;2023-06-22T04:25:06;19.40;99.90
5796;DHT22;2924;51.458;7.046;2023-06-22T04:27:33;19.40;99.90
5796;DHT22;2924;51.458;7.046;2023-06-22T04:30:03;19.30;99.90
5796;DHT22;2924;51.458;7.046;2023-06-22T04:32:28;19.20;99.90
5796;DHT22;2924;51.458;7.046;2023-06-22T04:34:54;19.20;99.90
5796;DHT22;2924;51.458;7.046;2023-06-22T04:37:20;19.20;99.90
5796;DHT22;2924;51.458;7.046;2023-06-22T04:39:49;19.10;99.90
5796;DHT22;2924;51.458;7.046;2023-06-22T04:42:14;19.10;99.90
5796;DHT22;2924;51.458;7.046;2023-06-22T04:44:40;19.20;99.90
5796;DHT22;2924;51.458;7.046;2023-06-22T04:47:07;19.30;99.90
5796;DHT22;2924;51.458;7.046;2023-06-22T04:49:34;19.30;99.90
5796;DHT22;2924;51.458;7.046;2023-06-22T04:52:07;19.30;99.90
5796;DHT22;2924;51.458;7.046;2023-06-22T04:54:34;19.30;99.90
5796;DHT22;2924;51.458;7.046;2023-06-22T04:57:06;19.30;99.90
5796;DHT22;2924;51.458;7.046;2023-06-22T04:59:36;19.20;99.90
5796;DHT22;2924;51.458;7.046;2023-06-22T05:02:05;19.20;99.90
5796;DHT22;2924;51.458;7.046;2023-06-22T05:04:31;19.10;99.90
5796;DHT22;2924;51.458;7.046;2023-06-22T05:06:58;19.10;99.90
5796;DHT22;2924;51.458;7.046;2023-06-22T05:09:23;19.10;99.90
5796;DHT22;2924;51.458;7.046;2023-06-22T05:11:50;19.10;99.90
5796;DHT22;2924;51.458;7.046;2023-06-22T05:14:16;19.00;99.90
5796;DHT22;2924;51.458;7.046;2023-06-22T05:16:42;19.00;99.90
5796;DHT22;2924;51.458;7.046;2023-06-22T05:19:08;19.00;99.90
5796;DHT22;2924;51.458;7.046;2023-06-22T05:21:33;18.90;99.90
5796;DHT22;2924;51.458;7.046;2023-06-22T05:23:59;19.00;99.90
5796;DHT22;2924;51.458;7.046;2023-06-22T05:26:32;19.00;99.90
5796;DHT22;2924;51.458;7.046;2023-06-22T05:28:59;19.00;99.90
5796;DHT22;2924;51.458;7.046;2023-06-22T05:31:26;19.00;99.90
5796;DHT22;2924;51.458;7.046;2023-06-22T05:33:52;18.90;99.90
5796;DHT22;2924;51.458;7.046;2023-06-22T05:36:19;18.90;99.90
5796;DHT22;2924;51.458;7.046;2023-06-22T05:38:51;18.80;99.90
5796;DHT22;2924;51.458;7.046;2023-06-22T05:41:17;18.80;99.90
5796;DHT22;2924;51.458;7.046;2023-06-22T05:43:43;18.80;99.90
5796;DHT22;2924;51.458;7.046;2023-06-22T05:46:09;18.90;99.90
5796;DHT22;2924;51.458;7.046;2023-06-22T05:48:34;19.00;99.90
5796;DHT22;2924;51.458;7.046;2023-06-22T05:51:00;19.00;99.90
5796;DHT22;2924;51.458;7.046;2023-06-22T05:53:25;19.20;99.90
5796;DHT22;2924;51.458;7.046;2023-06-22T05:55:51;19.30;99.90
5796;DHT22;2924;51.458;7.046;2023-06-22T05:58:17;19.50;99.90
5796;DHT22;2924;51.458;7.046;2023-06-22T06:00:42;19.40;99.90
5796;DHT22;2924;51.458;7.046;2023-06-22T06:03:09;19.30;99.90
5796;DHT22;2924;51.458;7.046;2023-06-22T06:05:35;19.10;99.90
5796;DHT22;2924;51.458;7.046;2023-06-22T06:08:02;18.90;99.90
5796;DHT22;2924;51.458;7.046;2023-06-22T06:10:28;18.80;99.90
5796;DHT22;2924;51.458;7.046;2023-06-22T06:12:55;18.70;99.90
5796;DHT22;2924;51.458;7.046;2023-06-22T06:15:21;18.70;99.90
5796;DHT22;2924;51.458;7.046;2023-06-22T06:17:53;18.70;99.90
5796;DHT22;2924;51.458;7.046;2023-06-22T06:20:20;18.60;99.90
5796;DHT22;2924;51.458;7.046;2023-06-22T06:22:46;18.70;99.90
5796;DHT22;2924;51.458;7.046;2023-06-22T06:25:12;18.70;99.90
5796;DHT22;2924;51.458;7.046;2023-06-22T06:27:42;18.80;99.90
5796;DHT22;2924;51.458;7.046;2023-06-22T06:30:10;18.90;99.90
5796;DHT22;2924;51.458;7.046;2023-06-22T06:32:36;18.90;99.90
5796;DHT22;2924;51.458;7.046;2023-06-22T06:35:01;18.90;99.90
5796;DHT22;2924;51.458;7.046;2023-06-22T06:37:27;18.90;99.90
5796;DHT22;2924;51.458;7.046;2023-06-22T06:39:53;18.90;99.90
5796;DHT22;2924;51.458;7.046;2023-06-22T06:42:18;19.00;99.90
5796;DHT22;2924;51.458;7.046;2023-06-22T06:44:45;19.10;99.90
5796;DHT22;2924;51.458;7.046;2023-06-22T06:47:10;19.20;99.90
5796;DHT22;2924;51.458;7.046;2023-06-22T06:49:36;19.30;99.90
5796;DHT22;2924;51.458;7.046;2023-06-22T06:52:02;19.50;99.90
5796;DHT22;2924;51.458;7.046;2023-06-22T06:54:27;19.70;99.90
5796;DHT22;2924;51.458;7.046;2023-06-22T06:56:53;19.90;99.90
5796;DHT22;2924;51.458;7.046;2023-06-22T06:59:18;20.00;99.90
5796;DHT22;2924;51.458;7.046;2023-06-22T07:01:44;20.10;99.90
5796;DHT22;2924;51.458;7.046;2023-06-22T07:04:10;20.30;99.90
5796;DHT22;2924;51.458;7.046;2023-06-22T07:06:36;20.40;99.90
5796;DHT22;2924;51.458;7.046;2023-06-22T07:09:01;20.50;99.90
5796;DHT22;2924;51.458;7.046;2023-06-22T07:11:27;20.60;99.90
5796;DHT22;2924;51.458;7.046;2023-06-22T07:13:53;20.70;99.90
5796;DHT22;2924;51.458;7.046;2023-06-22T07:16:18;20.90;99.90
5796;DHT22;2924;51.458;7.046;2023-06-22T07:18:44;21.00;99.90
5796;DHT22;2924;51.458;7.046;2023-06-22T07:21:09;21.20;99.90
5796;DHT22;2924;51.458;7.046;2023-06-22T07:23:35;21.30;99.90
5796;DHT22;2924;51.458;7.046;2023-06-22T07:26:00;21.30;99.90
5796;DHT22;2924;51.458;7.046;2023-06-22T07:28:31;21.30;99.90
5796;DHT22;2924;51.458;7.046;2023-06-22T07:31:02;21.30;99.90
5796;DHT22;2924;51.458;7.046;2023-06-22T07:33:28;21.40;99.90
5796;DHT22;2924;51.458;7.046;2023-06-22T07:35:54;21.40;99.90
5796;DHT22;2924;51.458;7.046;2023-06-22T07:38:19;21.20;99.90
5796;DHT22;2924;51.458;7.046;2023-06-22T07:40:45;21.20;99.90
5796;DHT22;2924;51.458;7.046;2023-06-22T07:43:11;21.30;99.90
5796;DHT22;2924;51.458;7.046;2023-06-22T07:45:37;21.10;99.90
5796;DHT22;2924;51.458;7.046;2023-06-22T07:48:05;21.00;99.90
5796;DHT22;2924;51.458;7.046;2023-06-22T07:50:30;20.80;99.90
5796;DHT22;2924;51.458;7.046;2023-06-22T07:52:56;20.50;99.90
5796;DHT22;2924;51.458;7.046;2023-06-22T07:55:22;20.30;99.90
5796;DHT22;2924;51.458;7.046;2023-06-22T07:57:49;20.30;99.90
5796;DHT22;2924;51.458;7.046;2023-06-22T08:00:17;20.30;99.90
5796;DHT22;2924;51.458;7.046;2023-06-22T08:02:45;20.20;99.90
5796;DHT22;2924;51.458;7.046;2023-06-22T08:05:11;20.00;99.90
5796;DHT22;2924;51.458;7.046;2023-06-22T08:07:37;19.90;99.90
5796;DHT22;2924;51.458;7.046;2023-06-22T08:10:05;19.80;99.90
5796;DHT22;2924;51.458;7.046;2023-06-22T08:12:31;19.80;99.90
5796;DHT22;2924;51.458;7.046;2023-06-22T08:14:56;19.80;99.90
5796;DHT22;2924;51.458;7.046;2023-06-22T08:17:23;19.80;99.90
5796;DHT22;2924;51.458;7.046;2023-06-22T08:19:49;19.80;99.90
5796;DHT22;2924;51.458;7.046;2023-06-22T08:22:16;19.70;99.90
5796;DHT22;2924;51.458;7.046;2023-06-22T08:24:42;19.80;99.90
5796;DHT22;2924;51.458;7.046;2023-06-22T08:27:07;19.80;99.90
5796;DHT22;2924;51.458;7.046;2023-06-22T08:29:40;19.80;99.90
5796;DHT22;2924;51.458;7.046;2023-06-22T08:32:08;19.90;99.90
5796;DHT22;2924;51.458;7.046;2023-06-22T08:34:34;20.20;99.90
5796;DHT22;2924;51.458;7.046;2023-06-22T08:37:00;20.60;99.90
5796;DHT22;2924;51.458;7.046;2023-06-22T08:39:26;20.80;99.90
5796;DHT22;2924;51.458;7.046;2023-06-22T08:41:51;21.20;99.90
5796;DHT22;2924;51.458;7.046;2023-06-22T08:44:18;21.20;99.90
5796;DHT22;2924;51.458;7.046;2023-06-22T08:46:44;21.30;99.90
5796;DHT22;2924;51.458;7.046;2023-06-22T08:49:09;21.50;99.90
5796;DHT22;2924;51.458;7.046;2023-06-22T08:51:35;21.50;99.90
5796;DHT22;2924;51.458;7.046;2023-06-22T08:54:01;21.30;99.90
5796;DHT22;2924;51.458;7.046;2023-06-22T08:56:27;21.20;99.90
5796;DHT22;2924;51.458;7.046;2023-06-22T08:58:52;21.00;99.90
5796;DHT22;2924;51.458;7.046;2023-06-22T09:01:18;21.00;99.90
5796;DHT22;2924;51.458;7.046;2023-06-22T09:03:44;21.10;99.90
5796;DHT22;2924;51.458;7.046;2023-06-22T09:06:09;21.10;99.90
5796;DHT22;2924;51.458;7.046;2023-06-22T09:08:36;21.20;99.90
5796;DHT22;2924;51.458;7.046;2023-06-22T09:11:02;21.20;99.90
5796;DHT22;2924;51.458;7.046;2023-06-22T09:13:30;21.20;99.90
5796;DHT22;2924;51.458;7.046;2023-06-22T09:15:56;21.30;99.90
5796;DHT22;2924;51.458;7.046;2023-06-22T09:18:21;21.50;99.90
5796;DHT22;2924;51.458;7.046;2023-06-22T09:20:47;21.80;99.90
5796;DHT22;2924;51.458;7.046;2023-06-22T09:23:12;22.00;99.90
5796;DHT22;2924;51.458;7.046;2023-06-22T09:25:38;22.40;99.90
5796;DHT22;2924;51.458;7.046;2023-06-22T09:28:05;22.60;99.90
5796;DHT22;2924;51.458;7.046;2023-06-22T09:30:31;22.90;99.90
5796;DHT22;2924;51.458;7.046;2023-06-22T09:32:56;23.20;99.90
5796;DHT22;2924;51.458;7.046;2023-06-22T09:35:22;23.50;99.90
5796;DHT22;2924;51.458;7.046;2023-06-22T09:37:47;23.70;99.90
5796;DHT22;2924;51.458;7.046;2023-06-22T09:40:13;24.00;99.90
5796;DHT22;2924;51.458;7.046;2023-06-22T09:42:41;24.20;99.90
5796;DHT22;2924;51.458;7.046;2023-06-22T09:45:07;24.30;99.90
5796;DHT22;2924;51.458;7.046;2023-06-22T09:47:33;24.80;99.90
5796;DHT22;2924;51.458;7.046;2023-06-22T09:49:58;25.20;99.90
5796;DHT22;2924;51.458;7.046;2023-06-22T09:52:25;25.30;99.90
5796;DHT22;2924;51.458;7.046;2023-06-22T09:54:51;25.10;99.90
5796;DHT22;2924;51.458;7.046;2023-06-22T09:57:16;24.60;99.90
5796;DHT22;2924;51.458;7.046;2023-06-22T09:59:42;24.40;99.90
5796;DHT22;2924;51.458;7.046;2023-06-22T10:02:08;24.30;99.90
5796;DHT22;2924;51.458;7.046;2023-06-22T10:04:34;24.70;99.90
5796;DHT22;2924;51.458;7.046;2023-06-22T10:07:00;25.70;99.90
5796;DHT22;2924;51.458;7.046;2023-06-22T10:09:26;26.20;99.90
5796;DHT22;2924;51.458;7.046;2023-06-22T10:11:52;25.90;99.90
5796;DHT22;2924;51.458;7.046;2023-06-22T10:14:17;25.30;99.90
5796;DHT22;2924;51.458;7.046;2023-06-22T10:16:43;26.10;99.90
5796;DHT22;2924;51.458;7.046;2023-06-22T10:19:09;26.70;99.90
5796;DHT22;2924;51.458;7.046;2023-06-22T10:21:34;27.30;99.90
5796;DHT22;2924;51.458;7.046;2023-06-22T10:24:00;28.00;99.90
5796;DHT22;2924;51.458;7.046;2023-06-22T10:26:32;28.90;99.90
5796;DHT22;2924;51.458;7.046;2023-06-22T10:28:58;28.70;99.90
5796;DHT22;2924;51.458;7.046;2023-06-22T10:31:23;28.40;99.90
5796;DHT22;2924;51.458;7.046;2023-06-22T10:33:49;27.90;99.90
5796;DHT22;2924;51.458;7.046;2023-06-22T10:36:15;28.20;99.90
5796;DHT22;2924;51.458;7.046;2023-06-22T10:38:40;28.40;99.90
5796;DHT22;2924;51.458;7.046;2023-06-22T10:41:06;28.30;99.90
5796;DHT22;2924;51.458;7.046;2023-06-22T10:43:32;28.30;99.90
5796;DHT22;2924;51.458;7.046;2023-06-22T10:45:57;28.40;99.90
5796;DHT22;2924;51.458;7.046;2023-06-22T10:48:23;28.50;99.90
5796;DHT22;2924;51.458;7.046;2023-06-22T10:50:48;28.00;99.90
5796;DHT22;2924;51.458;7.046;2023-06-22T10:53:14;28.00;99.90
5796;DHT22;2924;51.458;7.046;2023-06-22T10:55:39;28.30;99.90
5796;DHT22;2924;51.458;7.046;2023-06-22T10:58:05;28.40;99.90
5796;DHT22;2924;51.458;7.046;2023-06-22T11:00:30;28.70;99.90
5796;DHT22;2924;51.458;7.046;2023-06-22T11:02:56;28.80;99.90
5796;DHT22;2924;51.458;7.046;2023-06-22T11:05:22;27.70;99.90
5796;DHT22;2924;51.458;7.046;2023-06-22T11:07:47;27.50;99.90
5796;DHT22;2924;51.458;7.046;2023-06-22T11:10:15;27.10;99.90
5796;DHT22;2924;51.458;7.046;2023-06-22T11:12:40;26.90;99.90
5796;DHT22;2924;51.458;7.046;2023-06-22T11:15:08;27.00;99.90
5796;DHT22;2924;51.458;7.046;2023-06-22T11:17:33;26.90;99.90
5796;DHT22;2924;51.458;7.046;2023-06-22T11:19:59;26.40;99.90
5796;DHT22;2924;51.458;7.046;2023-06-22T11:22:25;26.20;99.90
5796;DHT22;2924;51.458;7.046;2023-06-22T11:24:51;26.00;99.90
5796;DHT22;2924;51.458;7.046;2023-06-22T11:27:17;25.80;99.90
5796;DHT22;2924;51.458;7.046;2023-06-22T14:50:10;22.20;99.90
5796;DHT22;2924;51.458;7.046;2023-06-22T14:52:35;22.40;99.90
5796;DHT22;2924;51.458;7.046;2023-06-22T14:55:01;22.50;99.90
5796;DHT22;2924;51.458;7.046;2023-06-22T14:57:26;22.50;99.90
5796;DHT22;2924;51.458;7.046;2023-06-22T14:59:52;22.40;99.90
5796;DHT22;2924;51.458;7.046;2023-06-22T15:02:17;22.30;99.90
5796;DHT22;2924;51.458;7.046;2023-06-22T15:04:43;22.20;99.90
5796;DHT22;2924;51.458;7.046;2023-06-22T15:07:09;22.30;99.90
5796;DHT22;2924;51.458;7.046;2023-06-22T15:09:34;22.30;99.90
5796;DHT22;2924;51.458;7.046;2023-06-22T15:12:00;22.10;99.90
5796;DHT22;2924;51.458;7.046;2023-06-22T15:14:27;22.00;99.90
5796;DHT22;2924;51.458;7.046;2023-06-22T15:16:53;21.50;99.90
5796;DHT22;2924;51.458;7.046;2023-06-22T15:19:18;21.40;99.90
5796;DHT22;2924;51.458;7.046;2023-06-22T15:21:44;21.50;99.90
5796;DHT22;2924;51.458;7.046;2023-06-22T15:24:10;21.60;99.90
5796;DHT22;2924;51.458;7.046;2023-06-22T15:26:36;21.50;99.90
5796;DHT22;2924;51.458;7.046;2023-06-22T15:29:02;21.60;99.90
5796;DHT22;2924;51.458;7.046;2023-06-22T15:31:27;21.50;99.90
5796;DHT22;2924;51.458;7.046;2023-06-22T15:33:53;21.60;99.90
5796;DHT22;2924;51.458;7.046;2023-06-22T15:36:18;21.70;99.90
5796;DHT22;2924;51.458;7.046;2023-06-22T15:38:44;21.90;99.90
5796;DHT22;2924;51.458;7.046;2023-06-22T15:41:10;22.00;99.90
5796;DHT22;2924;51.458;7.046;2023-06-22T15:43:35;22.10;99.90
5796;DHT22;2924;51.458;7.046;2023-06-22T15:46:01;22.10;99.90
5796;DHT22;2924;51.458;7.046;2023-06-22T15:48:26;21.80;99.90
5796;DHT22;2924;51.458;7.046;2023-06-22T15:50:52;21.70;99.90
5796;DHT22;2924;51.458;7.046;2023-06-22T15:53:17;21.30;99.90
5796;DHT22;2924;51.458;7.046;2023-06-22T15:55:43;20.90;99.90
5796;DHT22;2924;51.458;7.046;2023-06-22T15:58:09;20.60;99.90
5796;DHT22;2924;51.458;7.046;2023-06-22T16:00:35;20.30;99.90
5796;DHT22;2924;51.458;7.046;2023-06-22T16:03:00;19.90;99.90
5796;DHT22;2924;51.458;7.046;2023-06-22T16:05:26;19.70;99.90
5796;DHT22;2924;51.458;7.046;2023-06-22T16:07:55;19.60;99.90
5796;DHT22;2924;51.458;7.046;2023-06-22T16:10:21;19.50;99.90
5796;DHT22;2924;51.458;7.046;2023-06-22T16:12:46;19.50;99.90
5796;DHT22;2924;51.458;7.046;2023-06-22T16:15:13;19.50;99.90
5796;DHT22;2924;51.458;7.046;2023-06-22T16:17:39;19.40;99.90
5796;DHT22;2924;51.458;7.046;2023-06-22T16:20:07;19.40;99.90
5796;DHT22;2924;51.458;7.046;2023-06-22T16:22:33;19.20;99.90
5796;DHT22;2924;51.458;7.046;2023-06-22T16:24:59;19.20;99.90
5796;DHT22;2924;51.458;7.046;2023-06-22T16:27:24;19.10;99.90
5796;DHT22;2924;51.458;7.046;2023-06-22T16:29:50;19.00;99.90
5796;DHT22;2924;51.458;7.046;2023-06-22T16:32:16;18.90;99.90
5796;DHT22;2924;51.458;7.046;2023-06-22T16:34:43;18.90;99.90
5796;DHT22;2924;51.458;7.046;2023-06-22T16:37:11;18.80;99.90
5796;DHT22;2924;51.458;7.046;2023-06-22T16:39:37;18.80;99.90
5796;DHT22;2924;51.458;7.046;2023-06-22T16:42:03;18.80;99.90
5796;DHT22;2924;51.458;7.046;2023-06-22T16:44:29;18.70;99.90
5796;DHT22;2924;51.458;7.046;2023-06-22T16:46:54;18.70;99.90
5796;DHT22;2924;51.458;7.046;2023-06-22T16:49:20;18.70;99.90
5796;DHT22;2924;51.458;7.046;2023-06-22T16:51:45;18.60;99.90
5796;DHT22;2924;51.458;7.046;2023-06-22T16:54:12;18.60;99.90
5796;DHT22;2924;51.458;7.046;2023-06-22T16:56:37;18.60;99.90
5796;DHT22;2924;51.458;7.046;2023-06-22T16:59:03;18.60;99.90
5796;DHT22;2924;51.458;7.046;2023-06-22T17:01:29;18.60;99.90
5796;DHT22;2924;51.458;7.046;2023-06-22T17:04:04;18.60;99.90
5796;DHT22;2924;51.458;7.046;2023-06-22T17:06:31;18.60;99.90
5796;DHT22;2924;51.458;7.046;2023-06-22T17:08:59;18.60;99.90
5796;DHT22;2924;51.458;7.046;2023-06-22T17:11:26;18.60;99.90
5796;DHT22;2924;51.458;7.046;2023-06-22T17:13:53;18.50;99.90
5796;DHT22;2924;51.458;7.046;2023-06-22T17:16:19;18.50;99.90
5796;DHT22;2924;51.458;7.046;2023-06-22T17:18:46;18.50;99.90
5796;DHT22;2924;51.458;7.046;2023-06-22T17:21:12;18.50;99.90
5796;DHT22;2924;51.458;7.046;2023-06-22T17:23:38;18.40;99.90
5796;DHT22;2924;51.458;7.046;2023-06-22T17:26:05;18.40;99.90
5796;DHT22;2924;51.458;7.046;2023-06-22T17:28:50;18.40;99.90
5796;DHT22;2924;51.458;7.046;2023-06-22T17:31:17;18.40;99.90
5796;DHT22;2924;51.458;7.046;2023-06-22T17:33:43;18.40;99.90
5796;DHT22;2924;51.458;7.046;2023-06-22T17:36:12;18.50;99.90
5796;DHT22;2924;51.458;7.046;2023-06-22T17:38:40;18.50;99.90
5796;DHT22;2924;51.458;7.046;2023-06-22T17:41:06;18.50;99.90
5796;DHT22;2924;51.458;7.046;2023-06-22T17:43:32;18.50;99.90
5796;DHT22;2924;51.458;7.046;2023-06-22T17:45:58;18.50;99.90
5796;DHT22;2924;51.458;7.046;2023-06-22T17:48:24;18.50;99.90
5796;DHT22;2924;51.458;7.046;2023-06-22T17:50:51;18.50;99.90
5796;DHT22;2924;51.458;7.046;2023-06-22T17:53:17;18.50;99.90
5796;DHT22;2924;51.458;7.046;2023-06-22T17:55:42;18.50;99.90
5796;DHT22;2924;51.458;7.046;2023-06-22T17:58:08;18.50;99.90
5796;DHT22;2924;51.458;7.046;2023-06-22T18:00:34;18.50;99.90
5796;DHT22;2924;51.458;7.046;2023-06-22T18:03:00;18.50;99.90
5796;DHT22;2924;51.458;7.046;2023-06-22T18:05:33;18.50;99.90
5796;DHT22;2924;51.458;7.046;2023-06-22T18:08:00;18.50;99.90
5796;DHT22;2924;51.458;7.046;2023-06-22T18:10:32;18.50;99.90
5796;DHT22;2924;51.458;7.046;2023-06-22T18:13:02;18.50;99.90
5796;DHT22;2924;51.458;7.046;2023-06-22T18:15:32;18.60;99.90
5796;DHT22;2924;51.458;7.046;2023-06-22T18:17:58;18.50;99.90
5796;DHT22;2924;51.458;7.046;2023-06-22T18:20:25;18.60;99.90
5796;DHT22;2924;51.458;7.046;2023-06-22T18:22:53;18.60;99.90
5796;DHT22;2924;51.458;7.046;2023-06-22T18:25:19;18.60;99.90
5796;DHT22;2924;51.458;7.046;2023-06-22T18:27:46;18.60;99.90
5796;DHT22;2924;51.458;7.046;2023-06-22T18:30:14;18.60;99.90
5796;DHT22;2924;51.458;7.046;2023-06-22T18:32:41;18.60;99.90
5796;DHT22;2924;51.458;7.046;2023-06-22T18:35:07;18.60;99.90
5796;DHT22;2924;51.458;7.046;2023-06-22T18:37:34;18.50;99.90
5796;DHT22;2924;51.458;7.046;2023-06-22T18:40:01;18.50;99.90
5796;DHT22;2924;51.458;7.046;2023-06-22T18:42:31;18.50;99.90
5796;DHT22;2924;51.458;7.046;2023-06-22T18:48:23;18.50;99.90
5796;DHT22;2924;51.458;7.046;2023-06-22T18:50:51;18.50;99.90
5796;DHT22;2924;51.458;7.046;2023-06-22T18:56:13;18.40;99.90
5796;DHT22;2924;51.458;7.046;2023-06-22T18:58:39;18.40;99.90
5796;DHT22;2924;51.458;7.046;2023-06-22T19:01:18;18.40;99.90
5796;DHT22;2924;51.458;7.046;2023-06-22T19:03:48;18.50;99.90
5796;DHT22;2924;51.458;7.046;2023-06-22T19:09:19;18.50;99.90
5796;DHT22;2924;51.458;7.046;2023-06-22T19:11:45;18.40;99.90
5796;DHT22;2924;51.458;7.046;2023-06-22T19:14:21;18.40;99.90
5796;DHT22;2924;51.458;7.046;2023-06-22T19:16:47;18.30;99.90
5796;DHT22;2924;51.458;7.046;2023-06-22T19:19:15;18.40;99.90
5796;DHT22;2924;51.458;7.046;2023-06-22T19:21:40;18.50;99.90
5796;DHT22;2924;51.458;7.046;2023-06-22T19:24:07;18.50;99.90
5796;DHT22;2924;51.458;7.046;2023-06-22T19:26:33;18.50;99.90
5796;DHT22;2924;51.458;7.046;2023-06-22T19:28:58;18.50;99.90
5796;DHT22;2924;51.458;7.046;2023-06-22T19:31:25;18.50;99.90